sensor_id;sensor_type;location;lat;lon;timestamp;temperature;humidity
4354;DHT22;11018;51.258;6.806;2023-04-01T00:02:01;11.20;83.30
4354;DHT22;11018;51.258;6.806;2023-04-01T00:04:26;11.20;81.90
4354;DHT22;11018;51.258;6.806;2023-04-01T00:06:52;11.20;82.40
4354;DHT22;11018;51.258;6.806;2023-04-01T00:09:18;11.20;82.90
4354;DHT22;11018;51.258;6.806;2023-04-01T00:11:44;11.20;83.30
4354;DHT22;11018;51.258;6.806;2023-04-01T00:14:11;11.20;84.80
4354;DHT22;11018;51.258;6.806;2023-04-01T00:16:37;11.10;85.10
4354;DHT22;11018;51.258;6.806;2023-04-01T00:19:03;11.10;84.80
4354;DHT22;11018;51.258;6.806;2023-04-01T00:21:28;11.20;86.00
4354;DHT22;11018;51.258;6.806;2023-04-01T00:23:54;11.10;86.40
4354;DHT22;11018;51.258;6.806;2023-04-01T00:26:19;11.10;87.10
4354;DHT22;11018;51.258;6.806;2023-04-01T00:28:47;11.10;87.30
4354;DHT22;11018;51.258;6.806;2023-04-01T00:31:14;11.10;86.70
4354;DHT22;11018;51.258;6.806;2023-04-01T00:33:40;11.10;87.20
4354;DHT22;11018;51.258;6.806;2023-04-01T00:36:14;11.10;86.90
4354;DHT22;11018;51.258;6.806;2023-04-01T00:38:41;11.10;86.30
4354;DHT22;11018;51.258;6.806;2023-04-01T00:41:08;11.10;84.20
4354;DHT22;11018;51.258;6.806;2023-04-01T00:43:34;11.10;85.50
4354;DHT22;11018;51.258;6.806;2023-04-01T00:46:00;11.10;86.10
4354;DHT22;11018;51.258;6.806;2023-04-01T00:48:32;11.10;85.90
4354;DHT22;11018;51.258;6.806;2023-04-01T00:54:00;11.10;85.10
4354;DHT22;11018;51.258;6.806;2023-04-01T00:56:41;11.10;83.50
4354;DHT22;11018;51.258;6.806;2023-04-01T00:59:17;11.10;84.30
4354;DHT22;11018;51.258;6.806;2023-04-01T01:01:44;11.10;83.70
4354;DHT22;11018;51.258;6.806;2023-04-01T01:04:24;11.10;83.40
4354;DHT22;11018;51.258;6.806;2023-04-01T01:07:05;11.10;83.30
4354;DHT22;11018;51.258;6.806;2023-04-01T01:10:03;11.10;83.20
4354;DHT22;11018;51.258;6.806;2023-04-01T01:12:57;11.10;82.40
4354;DHT22;11018;51.258;6.806;2023-04-01T01:15:45;11.10;82.50
4354;DHT22;11018;51.258;6.806;2023-04-01T01:34:25;11.10;82.10
4354;DHT22;11018;51.258;6.806;2023-04-01T01:36:56;11.00;83.70
4354;DHT22;11018;51.258;6.806;2023-04-01T01:39:26;11.10;81.50
4354;DHT22;11018;51.258;6.806;2023-04-01T01:41:56;11.10;82.00
4354;DHT22;11018;51.258;6.806;2023-04-01T01:44:23;11.10;83.60
4354;DHT22;11018;51.258;6.806;2023-04-01T01:46:51;11.00;84.90
4354;DHT22;11018;51.258;6.806;2023-04-01T01:49:17;11.10;86.20
4354;DHT22;11018;51.258;6.806;2023-04-01T01:51:44;11.00;87.90
4354;DHT22;11018;51.258;6.806;2023-04-01T01:54:14;11.00;89.90
4354;DHT22;11018;51.258;6.806;2023-04-01T01:56:41;11.00;90.00
4354;DHT22;11018;51.258;6.806;2023-04-01T01:59:11;10.90;91.10
4354;DHT22;11018;51.258;6.806;2023-04-01T02:01:41;10.90;88.10
4354;DHT22;11018;51.258;6.806;2023-04-01T02:04:08;10.90;89.30
4354;DHT22;11018;51.258;6.806;2023-04-01T02:06:38;10.90;88.40
4354;DHT22;11018;51.258;6.806;2023-04-01T02:09:09;10.90;90.40
4354;DHT22;11018;51.258;6.806;2023-04-01T02:11:47;10.90;89.30
4354;DHT22;11018;51.258;6.806;2023-04-01T02:14:20;11.00;87.90
4354;DHT22;11018;51.258;6.806;2023-04-01T02:16:58;10.90;88.50
4354;DHT22;11018;51.258;6.806;2023-04-01T02:19:29;11.00;87.80
4354;DHT22;11018;51.258;6.806;2023-04-01T02:22:00;11.00;89.00
4354;DHT22;11018;51.258;6.806;2023-04-01T02:24:28;10.80;91.10
4354;DHT22;11018;51.258;6.806;2023-04-01T02:26:55;10.70;93.30
4354;DHT22;11018;51.258;6.806;2023-04-01T02:29:22;10.70;93.90
4354;DHT22;11018;51.258;6.806;2023-04-01T02:31:50;10.80;93.60
4354;DHT22;11018;51.258;6.806;2023-04-01T02:34:15;10.80;93.20
4354;DHT22;11018;51.258;6.806;2023-04-01T02:36:42;10.80;94.90
4354;DHT22;11018;51.258;6.806;2023-04-01T02:39:08;10.80;95.50
4354;DHT22;11018;51.258;6.806;2023-04-01T02:41:41;10.70;95.10
4354;DHT22;11018;51.258;6.806;2023-04-01T02:44:08;10.80;93.30
4354;DHT22;11018;51.258;6.806;2023-04-01T02:46:35;10.70;95.10
4354;DHT22;11018;51.258;6.806;2023-04-01T02:49:00;10.80;93.60
4354;DHT22;11018;51.258;6.806;2023-04-01T02:51:26;10.80;93.80
4354;DHT22;11018;51.258;6.806;2023-04-01T02:53:52;10.70;95.80
4354;DHT22;11018;51.258;6.806;2023-04-01T02:56:17;10.70;94.90
4354;DHT22;11018;51.258;6.806;2023-04-01T02:58:45;10.70;97.40
4354;DHT22;11018;51.258;6.806;2023-04-01T03:01:10;10.70;99.20
4354;DHT22;11018;51.258;6.806;2023-04-01T03:03:36;10.60;99.60
4354;DHT22;11018;51.258;6.806;2023-04-01T03:06:09;10.60;99.90
4354;DHT22;11018;51.258;6.806;2023-04-01T03:08:35;10.70;98.00
4354;DHT22;11018;51.258;6.806;2023-04-01T03:11:01;10.70;97.00
4354;DHT22;11018;51.258;6.806;2023-04-01T03:13:26;10.70;96.70
4354;DHT22;11018;51.258;6.806;2023-04-01T03:15:52;10.70;95.50
4354;DHT22;11018;51.258;6.806;2023-04-01T03:18:18;10.70;96.20
4354;DHT22;11018;51.258;6.806;2023-04-01T03:20:44;10.70;96.40
4354;DHT22;11018;51.258;6.806;2023-04-01T03:23:10;10.70;95.00
4354;DHT22;11018;51.258;6.806;2023-04-01T03:25:36;10.70;95.80
4354;DHT22;11018;51.258;6.806;2023-04-01T03:28:01;10.70;95.70
4354;DHT22;11018;51.258;6.806;2023-04-01T03:30:27;10.70;95.90
4354;DHT22;11018;51.258;6.806;2023-04-01T03:32:53;10.70;96.10
4354;DHT22;11018;51.258;6.806;2023-04-01T03:35:19;10.70;96.40
4354;DHT22;11018;51.258;6.806;2023-04-01T03:37:44;10.70;95.10
4354;DHT22;11018;51.258;6.806;2023-04-01T03:40:10;10.70;95.00
4354;DHT22;11018;51.258;6.806;2023-04-01T03:42:36;10.70;94.90
4354;DHT22;11018;51.258;6.806;2023-04-01T03:45:03;10.70;93.40
4354;DHT22;11018;51.258;6.806;2023-04-01T03:47:29;10.70;95.50
4354;DHT22;11018;51.258;6.806;2023-04-01T03:49:54;10.70;95.10
4354;DHT22;11018;51.258;6.806;2023-04-01T03:52:20;10.70;94.00
4354;DHT22;11018;51.258;6.806;2023-04-01T03:54:46;10.70;95.90
4354;DHT22;11018;51.258;6.806;2023-04-01T03:57:11;10.70;95.20
4354;DHT22;11018;51.258;6.806;2023-04-01T03:59:37;10.70;94.50
4354;DHT22;11018;51.258;6.806;2023-04-01T04:02:03;10.70;94.60
4354;DHT22;11018;51.258;6.806;2023-04-01T04:04:28;10.70;94.30
4354;DHT22;11018;51.258;6.806;2023-04-01T04:06:55;10.70;95.00
4354;DHT22;11018;51.258;6.806;2023-04-01T04:09:22;10.70;95.80
4354;DHT22;11018;51.258;6.806;2023-04-01T04:11:48;10.70;97.00
4354;DHT22;11018;51.258;6.806;2023-04-01T04:14:14;10.70;97.20
4354;DHT22;11018;51.258;6.806;2023-04-01T04:16:39;10.70;96.90
4354;DHT22;11018;51.258;6.806;2023-04-01T04:19:05;10.70;96.90
4354;DHT22;11018;51.258;6.806;2023-04-01T04:21:31;10.70;99.90
4354;DHT22;11018;51.258;6.806;2023-04-01T04:23:58;10.70;99.40
4354;DHT22;11018;51.258;6.806;2023-04-01T04:26:24;10.70;99.90
4354;DHT22;11018;51.258;6.806;2023-04-01T04:28:51;10.70;99.60
4354;DHT22;11018;51.258;6.806;2023-04-01T04:31:24;10.70;99.10
4354;DHT22;11018;51.258;6.806;2023-04-01T04:33:50;10.70;99.50
4354;DHT22;11018;51.258;6.806;2023-04-01T04:36:17;10.70;99.10
4354;DHT22;11018;51.258;6.806;2023-04-01T04:38:43;10.70;97.90
4354;DHT22;11018;51.258;6.806;2023-04-01T04:41:10;10.70;99.90
4354;DHT22;11018;51.258;6.806;2023-04-01T04:43:37;10.70;99.90
4354;DHT22;11018;51.258;6.806;2023-04-01T04:46:09;10.70;99.90
4354;DHT22;11018;51.258;6.806;2023-04-01T04:48:35;10.60;99.90
4354;DHT22;11018;51.258;6.806;2023-04-01T04:51:01;10.60;99.90
4354;DHT22;11018;51.258;6.806;2023-04-01T04:53:27;10.70;99.90
4354;DHT22;11018;51.258;6.806;2023-04-01T04:55:53;10.70;99.90
4354;DHT22;11018;51.258;6.806;2023-04-01T04:58:18;10.70;99.90
4354;DHT22;11018;51.258;6.806;2023-04-01T05:00:45;10.70;99.90
4354;DHT22;11018;51.258;6.806;2023-04-01T05:03:11;10.70;99.90
4354;DHT22;11018;51.258;6.806;2023-04-01T05:05:38;10.70;99.90
4354;DHT22;11018;51.258;6.806;2023-04-01T05:08:04;10.70;99.90
4354;DHT22;11018;51.258;6.806;2023-04-01T05:10:30;10.70;99.80
4354;DHT22;11018;51.258;6.806;2023-04-01T05:12:57;10.70;99.90
4354;DHT22;11018;51.258;6.806;2023-04-01T05:15:23;10.70;99.90
4354;DHT22;11018;51.258;6.806;2023-04-01T05:17:48;10.70;99.90
4354;DHT22;11018;51.258;6.806;2023-04-01T05:20:14;10.70;99.90
4354;DHT22;11018;51.258;6.806;2023-04-01T05:22:40;10.60;99.90
4354;DHT22;11018;51.258;6.806;2023-04-01T05:25:06;10.60;99.90
4354;DHT22;11018;51.258;6.806;2023-04-01T05:27:32;10.60;99.90
4354;DHT22;11018;51.258;6.806;2023-04-01T05:29:58;10.60;99.90
4354;DHT22;11018;51.258;6.806;2023-04-01T05:32:23;10.60;99.90
4354;DHT22;11018;51.258;6.806;2023-04-01T05:34:53;10.60;99.90
4354;DHT22;11018;51.258;6.806;2023-04-01T05:37:19;10.60;99.90
4354;DHT22;11018;51.258;6.806;2023-04-01T05:39:44;10.60;99.90
4354;DHT22;11018;51.258;6.806;2023-04-01T05:42:10;10.60;99.90
4354;DHT22;11018;51.258;6.806;2023-04-01T05:44:36;10.70;99.90
4354;DHT22;11018;51.258;6.806;2023-04-01T05:47:03;10.70;99.90
4354;DHT22;11018;51.258;6.806;2023-04-01T05:49:29;10.70;99.90
4354;DHT22;11018;51.258;6.806;2023-04-01T05:51:55;10.70;99.90
4354;DHT22;11018;51.258;6.806;2023-04-01T05:54:20;10.70;99.90
4354;DHT22;11018;51.258;6.806;2023-04-01T05:56:46;10.60;99.90
4354;DHT22;11018;51.258;6.806;2023-04-01T05:59:12;10.60;99.90
4354;DHT22;11018;51.258;6.806;2023-04-01T06:01:38;10.60;99.90
4354;DHT22;11018;51.258;6.806;2023-04-01T06:04:04;10.60;99.90
4354;DHT22;11018;51.258;6.806;2023-04-01T06:06:31;10.50;99.90
4354;DHT22;11018;51.258;6.806;2023-04-01T06:09:04;10.50;99.90
4354;DHT22;11018;51.258;6.806;2023-04-01T06:14:44;10.60;99.90
4354;DHT22;11018;51.258;6.806;2023-04-01T06:22:44;10.80;99.90
4354;DHT22;11018;51.258;6.806;2023-04-01T06:25:28;10.80;99.90
4354;DHT22;11018;51.258;6.806;2023-04-01T06:30:59;11.00;99.90
4354;DHT22;11018;51.258;6.806;2023-04-01T06:33:44;11.10;98.80
4354;DHT22;11018;51.258;6.806;2023-04-01T06:44:23;10.90;99.90
4354;DHT22;11018;51.258;6.806;2023-04-01T06:47:20;10.80;99.90
4354;DHT22;11018;51.258;6.806;2023-04-01T06:53:03;10.80;99.90
4354;DHT22;11018;51.258;6.806;2023-04-01T06:58:04;10.80;99.90
4354;DHT22;11018;51.258;6.806;2023-04-01T07:00:39;10.80;99.90
4354;DHT22;11018;51.258;6.806;2023-04-01T07:06:43;10.80;99.90
4354;DHT22;11018;51.258;6.806;2023-04-01T07:08:49;10.90;99.90
4354;DHT22;11018;51.258;6.806;2023-04-01T07:11:24;10.90;99.90
4354;DHT22;11018;51.258;6.806;2023-04-01T07:13:55;11.00;99.90
4354;DHT22;11018;51.258;6.806;2023-04-01T07:16:37;10.90;99.90
4354;DHT22;11018;51.258;6.806;2023-04-01T07:19:31;10.90;99.90
4354;DHT22;11018;51.258;6.806;2023-04-01T07:22:04;10.90;99.90
4354;DHT22;11018;51.258;6.806;2023-04-01T07:24:36;11.00;99.90
4354;DHT22;11018;51.258;6.806;2023-04-01T07:27:08;11.00;98.30
4354;DHT22;11018;51.258;6.806;2023-04-01T07:29:34;11.00;99.90
4354;DHT22;11018;51.258;6.806;2023-04-01T07:32:21;11.00;99.40
4354;DHT22;11018;51.258;6.806;2023-04-01T07:35:39;11.10;97.90
4354;DHT22;11018;51.258;6.806;2023-04-01T07:54:25;11.00;99.60
4354;DHT22;11018;51.258;6.806;2023-04-01T07:57:21;10.90;98.30
4354;DHT22;11018;51.258;6.806;2023-04-01T08:02:44;10.90;99.90
4354;DHT22;11018;51.258;6.806;2023-04-01T08:08:02;11.00;99.90
4354;DHT22;11018;51.258;6.806;2023-04-01T08:13:16;11.00;99.30
4354;DHT22;11018;51.258;6.806;2023-04-01T08:18:35;11.10;97.90
4354;DHT22;11018;51.258;6.806;2023-04-01T08:21:12;11.20;96.80
4354;DHT22;11018;51.258;6.806;2023-04-01T08:23:46;11.20;93.40
4354;DHT22;11018;51.258;6.806;2023-04-01T08:28:49;11.30;94.80
4354;DHT22;11018;51.258;6.806;2023-04-01T08:31:33;11.30;95.80
4354;DHT22;11018;51.258;6.806;2023-04-01T08:34:08;11.30;96.20
4354;DHT22;11018;51.258;6.806;2023-04-01T08:36:42;11.30;95.90
4354;DHT22;11018;51.258;6.806;2023-04-01T08:39:16;11.30;95.50
4354;DHT22;11018;51.258;6.806;2023-04-01T08:41:57;11.30;93.50
4354;DHT22;11018;51.258;6.806;2023-04-01T08:58:53;11.40;93.60
4354;DHT22;11018;51.258;6.806;2023-04-01T09:01:26;11.50;94.40
4354;DHT22;11018;51.258;6.806;2023-04-01T09:26:31;11.70;85.40
4354;DHT22;11018;51.258;6.806;2023-04-01T09:34:45;12.10;83.70
4354;DHT22;11018;51.258;6.806;2023-04-01T09:42:42;12.20;80.50
4354;DHT22;11018;51.258;6.806;2023-04-01T09:53:52;12.00;85.40
4354;DHT22;11018;51.258;6.806;2023-04-01T10:05:28;12.10;82.10
4354;DHT22;11018;51.258;6.806;2023-04-01T10:13:33;12.00;84.50
4354;DHT22;11018;51.258;6.806;2023-04-01T10:17:00;12.00;83.90
4354;DHT22;11018;51.258;6.806;2023-04-01T10:22:00;12.00;86.90
4354;DHT22;11018;51.258;6.806;2023-04-01T10:27:34;12.00;86.60
4354;DHT22;11018;51.258;6.806;2023-04-01T10:55:26;11.60;95.00
4354;DHT22;11018;51.258;6.806;2023-04-01T11:09:34;11.60;99.10
4354;DHT22;11018;51.258;6.806;2023-04-01T11:18:01;11.90;96.20
4354;DHT22;11018;51.258;6.806;2023-04-01T11:26:32;12.40;90.30
4354;DHT22;11018;51.258;6.806;2023-04-01T11:46:32;12.10;89.50
4354;DHT22;11018;51.258;6.806;2023-04-01T12:04:18;12.30;84.70
4354;DHT22;11018;51.258;6.806;2023-04-01T12:09:44;12.40;82.20
4354;DHT22;11018;51.258;6.806;2023-04-01T12:18:12;12.60;81.70
4354;DHT22;11018;51.258;6.806;2023-04-01T12:40:39;13.30;69.40
4354;DHT22;11018;51.258;6.806;2023-04-01T12:43:22;13.20;74.10
4354;DHT22;11018;51.258;6.806;2023-04-01T12:46:11;13.20;74.60
4354;DHT22;11018;51.258;6.806;2023-04-01T12:49:00;13.50;69.70
4354;DHT22;11018;51.258;6.806;2023-04-01T12:55:06;13.50;68.70
4354;DHT22;11018;51.258;6.806;2023-04-01T13:11:08;12.70;74.90
4354;DHT22;11018;51.258;6.806;2023-04-01T13:14:06;12.50;76.50
4354;DHT22;11018;51.258;6.806;2023-04-01T13:16:46;12.30;78.70
4354;DHT22;11018;51.258;6.806;2023-04-01T13:22:04;12.20;82.60
4354;DHT22;11018;51.258;6.806;2023-04-01T13:27:12;12.30;84.90
4354;DHT22;11018;51.258;6.806;2023-04-01T13:32:53;12.20;85.70
4354;DHT22;11018;51.258;6.806;2023-04-01T13:43:17;12.10;86.00
4354;DHT22;11018;51.258;6.806;2023-04-01T13:46:07;12.20;86.90
4354;DHT22;11018;51.258;6.806;2023-04-01T14:02:50;12.00;88.90
4354;DHT22;11018;51.258;6.806;2023-04-01T14:13:57;12.40;81.90
4354;DHT22;11018;51.258;6.806;2023-04-01T14:16:50;12.60;82.60
4354;DHT22;11018;51.258;6.806;2023-04-01T14:22:28;13.00;74.10
4354;DHT22;11018;51.258;6.806;2023-04-01T14:27:31;13.00;72.50
4354;DHT22;11018;51.258;6.806;2023-04-01T14:30:30;12.80;72.20
4354;DHT22;11018;51.258;6.806;2023-04-01T14:35:58;12.50;77.50
4354;DHT22;11018;51.258;6.806;2023-04-01T14:41:58;12.40;78.80
4354;DHT22;11018;51.258;6.806;2023-04-01T14:47:11;12.40;80.60
4354;DHT22;11018;51.258;6.806;2023-04-01T14:49:50;12.60;81.40
4354;DHT22;11018;51.258;6.806;2023-04-01T14:52:32;12.70;81.70
4354;DHT22;11018;51.258;6.806;2023-04-01T14:55:15;12.70;79.60
4354;DHT22;11018;51.258;6.806;2023-04-01T15:00:26;12.40;80.80
4354;DHT22;11018;51.258;6.806;2023-04-01T15:03:18;12.30;82.80
4354;DHT22;11018;51.258;6.806;2023-04-01T15:05:54;12.30;84.10
4354;DHT22;11018;51.258;6.806;2023-04-01T15:08:29;12.30;86.60
4354;DHT22;11018;51.258;6.806;2023-04-01T15:14:19;12.30;85.20
4354;DHT22;11018;51.258;6.806;2023-04-01T15:28:34;12.00;89.90
4354;DHT22;11018;51.258;6.806;2023-04-01T15:31:15;11.90;88.30
4354;DHT22;11018;51.258;6.806;2023-04-01T15:36:41;11.90;91.00
4354;DHT22;11018;51.258;6.806;2023-04-01T15:39:14;11.90;91.10
4354;DHT22;11018;51.258;6.806;2023-04-01T15:44:51;11.80;92.50
4354;DHT22;11018;51.258;6.806;2023-04-01T15:50:11;11.80;92.00
4354;DHT22;11018;51.258;6.806;2023-04-01T15:53:07;11.70;95.30
4354;DHT22;11018;51.258;6.806;2023-04-01T16:10:09;11.40;99.90
4354;DHT22;11018;51.258;6.806;2023-04-01T16:12:53;11.40;99.90
4354;DHT22;11018;51.258;6.806;2023-04-01T16:20:47;11.50;99.90
4354;DHT22;11018;51.258;6.806;2023-04-01T16:26:19;11.40;99.90
4354;DHT22;11018;51.258;6.806;2023-04-01T16:31:37;11.50;99.90
4354;DHT22;11018;51.258;6.806;2023-04-01T16:34:14;11.50;99.90
4354;DHT22;11018;51.258;6.806;2023-04-01T16:36:48;11.50;99.90
4354;DHT22;11018;51.258;6.806;2023-04-01T16:39:26;11.50;99.90
4354;DHT22;11018;51.258;6.806;2023-04-01T16:42:16;11.50;99.90
4354;DHT22;11018;51.258;6.806;2023-04-01T16:45:17;11.40;99.90
4354;DHT22;11018;51.258;6.806;2023-04-01T16:48:13;11.40;99.90
4354;DHT22;11018;51.258;6.806;2023-04-01T16:51:00;11.40;99.90
4354;DHT22;11018;51.258;6.806;2023-04-01T16:53:43;11.30;99.90
4354;DHT22;11018;51.258;6.806;2023-04-01T16:59:02;11.20;99.90
4354;DHT22;11018;51.258;6.806;2023-04-01T17:04:41;11.20;99.90
4354;DHT22;11018;51.258;6.806;2023-04-01T17:07:28;11.30;99.90
4354;DHT22;11018;51.258;6.806;2023-04-01T17:16:14;11.10;99.90
4354;DHT22;11018;51.258;6.806;2023-04-01T17:18:29;11.20;99.90
4354;DHT22;11018;51.258;6.806;2023-04-01T17:21:18;11.10;99.90
4354;DHT22;11018;51.258;6.806;2023-04-01T17:23:52;11.10;99.90
4354;DHT22;11018;51.258;6.806;2023-04-01T17:34:46;11.10;99.90
4354;DHT22;11018;51.258;6.806;2023-04-01T17:40:18;11.10;99.90
4354;DHT22;11018;51.258;6.806;2023-04-01T17:42:58;11.10;99.90
4354;DHT22;11018;51.258;6.806;2023-04-01T17:45:37;11.10;99.90
4354;DHT22;11018;51.258;6.806;2023-04-01T17:48:24;11.10;99.90
4354;DHT22;11018;51.258;6.806;2023-04-01T17:51:22;11.00;99.90
4354;DHT22;11018;51.258;6.806;2023-04-01T17:54:16;11.00;99.90
4354;DHT22;11018;51.258;6.806;2023-04-01T17:59:36;10.90;99.90
4354;DHT22;11018;51.258;6.806;2023-04-01T18:02:33;10.90;99.90
4354;DHT22;11018;51.258;6.806;2023-04-01T18:05:26;10.90;99.90
4354;DHT22;11018;51.258;6.806;2023-04-01T18:08:12;10.90;99.90
4354;DHT22;11018;51.258;6.806;2023-04-01T18:13:37;10.90;99.90
4354;DHT22;11018;51.258;6.806;2023-04-01T18:21:47;10.80;99.90
4354;DHT22;11018;51.258;6.806;2023-04-01T18:24:18;10.80;99.90
4354;DHT22;11018;51.258;6.806;2023-04-01T18:27:01;10.80;99.90
4354;DHT22;11018;51.258;6.806;2023-04-01T18:29:58;10.80;99.90
4354;DHT22;11018;51.258;6.806;2023-04-01T18:32:44;10.80;99.90
4354;DHT22;11018;51.258;6.806;2023-04-01T18:35:22;10.80;99.90
4354;DHT22;11018;51.258;6.806;2023-04-01T18:38:12;10.80;99.90
4354;DHT22;11018;51.258;6.806;2023-04-01T18:40:46;10.70;99.90
4354;DHT22;11018;51.258;6.806;2023-04-01T18:49:15;10.70;99.90
4354;DHT22;11018;51.258;6.806;2023-04-01T18:51:52;10.70;99.90
4354;DHT22;11018;51.258;6.806;2023-04-01T18:54:31;10.70;99.90
4354;DHT22;11018;51.258;6.806;2023-04-01T18:57:18;10.70;99.90
4354;DHT22;11018;51.258;6.806;2023-04-01T19:02:43;10.60;99.90
4354;DHT22;11018;51.258;6.806;2023-04-01T19:05:33;10.70;99.90
4354;DHT22;11018;51.258;6.806;2023-04-01T19:08:38;10.70;99.90
4354;DHT22;11018;51.258;6.806;2023-04-01T19:11:22;10.70;99.90
4354;DHT22;11018;51.258;6.806;2023-04-01T19:17:05;10.70;99.90
4354;DHT22;11018;51.258;6.806;2023-04-01T19:22:13;10.70;99.90
4354;DHT22;11018;51.258;6.806;2023-04-01T19:27:41;10.70;99.90
4354;DHT22;11018;51.258;6.806;2023-04-01T19:33:06;10.70;99.90
4354;DHT22;11018;51.258;6.806;2023-04-01T19:38:50;10.70;99.90
4354;DHT22;11018;51.258;6.806;2023-04-01T19:43:59;10.60;99.90
4354;DHT22;11018;51.258;6.806;2023-04-01T19:46:37;10.60;99.90
4354;DHT22;11018;51.258;6.806;2023-04-01T19:49:35;10.70;99.90
4354;DHT22;11018;51.258;6.806;2023-04-01T19:52:23;10.70;99.90
4354;DHT22;11018;51.258;6.806;2023-04-01T19:58:03;10.60;99.90
4354;DHT22;11018;51.258;6.806;2023-04-01T20:01:03;10.60;99.90
4354;DHT22;11018;51.258;6.806;2023-04-01T20:11:55;10.50;99.90
4354;DHT22;11018;51.258;6.806;2023-04-01T20:14:29;10.50;99.90
4354;DHT22;11018;51.258;6.806;2023-04-01T20:24:59;10.50;99.90
4354;DHT22;11018;51.258;6.806;2023-04-01T20:27:35;10.50;99.90
4354;DHT22;11018;51.258;6.806;2023-04-01T20:44:13;10.60;99.90
4354;DHT22;11018;51.258;6.806;2023-04-01T20:46:56;10.70;99.90
4354;DHT22;11018;51.258;6.806;2023-04-01T20:49:39;10.70;99.90
4354;DHT22;11018;51.258;6.806;2023-04-01T20:54:56;10.80;99.90
4354;DHT22;11018;51.258;6.806;2023-04-01T20:57:31;10.80;99.90
4354;DHT22;11018;51.258;6.806;2023-04-01T21:02:48;10.70;99.90
4354;DHT22;11018;51.258;6.806;2023-04-01T21:16:47;10.60;99.90
4354;DHT22;11018;51.258;6.806;2023-04-01T21:19:31;10.60;99.90
4354;DHT22;11018;51.258;6.806;2023-04-01T21:24:58;10.40;99.90
4354;DHT22;11018;51.258;6.806;2023-04-01T21:49:09;10.10;99.90
4354;DHT22;11018;51.258;6.806;2023-04-01T22:12:17;9.50;99.90
4354;DHT22;11018;51.258;6.806;2023-04-01T22:14:53;9.40;99.90
4354;DHT22;11018;51.258;6.806;2023-04-01T22:17:40;9.30;99.90
4354;DHT22;11018;51.258;6.806;2023-04-01T22:20:16;9.40;99.90
4354;DHT22;11018;51.258;6.806;2023-04-01T22:25:49;9.30;99.90
4354;DHT22;11018;51.258;6.806;2023-04-01T22:31:00;9.30;99.90
4354;DHT22;11018;51.258;6.806;2023-04-01T22:41:46;9.20;99.90
4354;DHT22;11018;51.258;6.806;2023-04-01T22:49:39;9.10;99.90
4354;DHT22;11018;51.258;6.806;2023-04-01T22:54:59;9.20;99.90
4354;DHT22;11018;51.258;6.806;2023-04-01T23:00:04;9.20;99.90
4354;DHT22;11018;51.258;6.806;2023-04-01T23:02:39;9.10;99.90
4354;DHT22;11018;51.258;6.806;2023-04-01T23:05:09;9.10;99.90
4354;DHT22;11018;51.258;6.806;2023-04-01T23:10:18;9.10;99.90
4354;DHT22;11018;51.258;6.806;2023-04-01T23:12:45;9.10;99.90
4354;DHT22;11018;51.258;6.806;2023-04-01T23:15:13;9.00;99.90
4354;DHT22;11018;51.258;6.806;2023-04-01T23:20:26;9.00;99.90
4354;DHT22;11018;51.258;6.806;2023-04-01T23:22:59;9.00;99.90
4354;DHT22;11018;51.258;6.806;2023-04-01T23:30:52;8.90;99.90
4354;DHT22;11018;51.258;6.806;2023-04-01T23:36:12;8.90;99.90
4354;DHT22;11018;51.258;6.806;2023-04-01T23:38:41;8.80;99.90
4354;DHT22;11018;51.258;6.806;2023-04-01T23:41:09;8.80;99.90
4354;DHT22;11018;51.258;6.806;2023-04-01T23:43:43;8.70;99.90
4354;DHT22;11018;51.258;6.806;2023-04-01T23:46:11;8.80;99.90
4354;DHT22;11018;51.258;6.806;2023-04-01T23:48:43;8.70;99.90
4354;DHT22;11018;51.258;6.806;2023-04-01T23:51:36;8.70;99.90
4354;DHT22;11018;51.258;6.806;2023-04-01T23:54:28;8.60;99.90
4354;DHT22;11018;51.258;6.806;2023-04-01T23:56:55;8.60;99.90
